sensor_id;sensor_type;location;lat;lon;timestamp;P1;durP1;ratioP1;P2;durP2;ratioP2
33148;SDS011;19506;51.040;3.856;2022-11-20T07:19:24;9.50;;;5.63;;
33148;SDS011;19506;51.040;3.856;2022-11-20T07:21:50;7.65;;;5.32;;
33148;SDS011;19506;51.040;3.856;2022-11-20T07:24:16;7.63;;;5.60;;
33148;SDS011;19506;51.040;3.856;2022-11-20T07:29:10;11.30;;;5.63;;
33148;SDS011;19506;51.040;3.856;2022-11-20T07:34:01;14.75;;;5.97;;
33148;SDS011;19506;51.040;3.856;2022-11-20T07:38:53;12.60;;;5.63;;
33148;SDS011;19506;51.040;3.856;2022-11-20T07:41:19;11.02;;;5.40;;
33148;SDS011;19506;51.040;3.856;2022-11-20T07:46:10;23.17;;;8.38;;
33148;SDS011;19506;51.040;3.856;2022-11-20T07:48:36;19.88;;;8.55;;
33148;SDS011;19506;51.040;3.856;2022-11-20T07:51:01;19.80;;;9.60;;
33148;SDS011;19506;51.040;3.856;2022-11-20T07:53:27;22.88;;;8.90;;
33148;SDS011;19506;51.040;3.856;2022-11-20T07:55:53;25.27;;;9.73;;
33148;SDS011;19506;51.040;3.856;2022-11-20T07:58:19;16.02;;;9.32;;
33148;SDS011;19506;51.040;3.856;2022-11-20T08:00:45;20.35;;;9.75;;
33148;SDS011;19506;51.040;3.856;2022-11-20T08:03:11;21.00;;;10.20;;
33148;SDS011;19506;51.040;3.856;2022-11-20T08:08:02;19.20;;;10.25;;
33148;SDS011;19506;51.040;3.856;2022-11-20T08:10:28;24.38;;;10.18;;
33148;SDS011;19506;51.040;3.856;2022-11-20T08:12:54;48.67;;;12.55;;
33148;SDS011;19506;51.040;3.856;2022-11-20T08:15:39;24.52;;;9.75;;
33148;SDS011;19506;51.040;3.856;2022-11-20T08:18:06;25.30;;;9.70;;
33148;SDS011;19506;51.040;3.856;2022-11-20T08:20:36;19.75;;;8.77;;
33148;SDS011;19506;51.040;3.856;2022-11-20T08:23:03;20.88;;;10.35;;
33148;SDS011;19506;51.040;3.856;2022-11-20T08:25:31;28.80;;;12.23;;
33148;SDS011;19506;51.040;3.856;2022-11-20T08:27:58;47.47;;;11.25;;
33148;SDS011;19506;51.040;3.856;2022-11-20T08:30:24;30.90;;;10.98;;
33148;SDS011;19506;51.040;3.856;2022-11-20T08:35:15;36.28;;;11.75;;
33148;SDS011;19506;51.040;3.856;2022-11-20T08:37:41;33.03;;;13.05;;
33148;SDS011;19506;51.040;3.856;2022-11-20T08:40:10;35.90;;;13.38;;
33148;SDS011;19506;51.040;3.856;2022-11-20T08:42:36;44.28;;;12.65;;
33148;SDS011;19506;51.040;3.856;2022-11-20T08:47:28;57.25;;;14.20;;
33148;SDS011;19506;51.040;3.856;2022-11-20T08:49:53;56.78;;;13.77;;
33148;SDS011;19506;51.040;3.856;2022-11-20T08:52:19;61.83;;;15.23;;
33148;SDS011;19506;51.040;3.856;2022-11-20T08:57:10;59.45;;;13.80;;
33148;SDS011;19506;51.040;3.856;2022-11-20T08:59:36;56.50;;;13.75;;
33148;SDS011;19506;51.040;3.856;2022-11-20T09:02:01;49.55;;;14.98;;
33148;SDS011;19506;51.040;3.856;2022-11-20T09:04:27;54.95;;;15.68;;
33148;SDS011;19506;51.040;3.856;2022-11-20T09:06:53;56.10;;;18.35;;
33148;SDS011;19506;51.040;3.856;2022-11-20T09:11:44;67.20;;;15.82;;
33148;SDS011;19506;51.040;3.856;2022-11-20T09:14:10;68.93;;;18.73;;
33148;SDS011;19506;51.040;3.856;2022-11-20T09:16:35;58.38;;;17.08;;
33148;SDS011;19506;51.040;3.856;2022-11-20T09:19:01;62.13;;;17.88;;
33148;SDS011;19506;51.040;3.856;2022-11-20T09:23:52;61.17;;;17.17;;
33148;SDS011;19506;51.040;3.856;2022-11-20T09:26:18;94.55;;;25.13;;
33148;SDS011;19506;51.040;3.856;2022-11-20T09:28:44;63.90;;;19.60;;
33148;SDS011;19506;51.040;3.856;2022-11-20T09:33:49;85.60;;;22.15;;
33148;SDS011;19506;51.040;3.856;2022-11-20T09:38:41;81.18;;;23.63;;
33148;SDS011;19506;51.040;3.856;2022-11-20T09:41:11;83.40;;;24.00;;
33148;SDS011;19506;51.040;3.856;2022-11-20T09:43:52;89.82;;;24.98;;
33148;SDS011;19506;51.040;3.856;2022-11-20T09:54:31;90.85;;;22.42;;
33148;SDS011;19506;51.040;3.856;2022-11-20T09:57:03;86.50;;;24.33;;
33148;SDS011;19506;51.040;3.856;2022-11-20T09:59:39;90.28;;;22.52;;
33148;SDS011;19506;51.040;3.856;2022-11-20T10:02:20;72.88;;;20.88;;
33148;SDS011;19506;51.040;3.856;2022-11-20T10:05:02;72.25;;;19.92;;
33148;SDS011;19506;51.040;3.856;2022-11-20T10:11:14;75.28;;;23.30;;
33148;SDS011;19506;51.040;3.856;2022-11-20T10:13:46;74.75;;;21.05;;
33148;SDS011;19506;51.040;3.856;2022-11-20T10:29:34;68.50;;;19.58;;
33148;SDS011;19506;51.040;3.856;2022-11-20T10:32:12;63.63;;;18.40;;
33148;SDS011;19506;51.040;3.856;2022-11-20T10:37:23;58.90;;;17.88;;
33148;SDS011;19506;51.040;3.856;2022-11-20T10:39:53;51.97;;;17.13;;
33148;SDS011;19506;51.040;3.856;2022-11-20T10:42:41;63.72;;;18.02;;
33148;SDS011;19506;51.040;3.856;2022-11-20T10:45:21;54.50;;;17.67;;
33148;SDS011;19506;51.040;3.856;2022-11-20T10:47:55;57.53;;;17.30;;
33148;SDS011;19506;51.040;3.856;2022-11-20T10:50:32;52.42;;;16.00;;
33148;SDS011;19506;51.040;3.856;2022-11-20T10:53:05;57.50;;;17.20;;
33148;SDS011;19506;51.040;3.856;2022-11-20T10:56:11;47.28;;;16.00;;
33148;SDS011;19506;51.040;3.856;2022-11-20T10:58:52;50.65;;;18.08;;
33148;SDS011;19506;51.040;3.856;2022-11-20T11:01:29;63.33;;;17.90;;
33148;SDS011;19506;51.040;3.856;2022-11-20T11:03:55;45.72;;;17.13;;
33148;SDS011;19506;51.040;3.856;2022-11-20T11:06:31;64.55;;;19.58;;
33148;SDS011;19506;51.040;3.856;2022-11-20T11:09:13;47.67;;;17.23;;
33148;SDS011;19506;51.040;3.856;2022-11-20T11:11:44;64.37;;;19.87;;
33148;SDS011;19506;51.040;3.856;2022-11-20T11:14:11;51.13;;;18.27;;
33148;SDS011;19506;51.040;3.856;2022-11-20T11:16:51;58.80;;;18.67;;
33148;SDS011;19506;51.040;3.856;2022-11-20T11:19:22;69.72;;;19.23;;
33148;SDS011;19506;51.040;3.856;2022-11-20T11:21:49;62.80;;;19.23;;
33148;SDS011;19506;51.040;3.856;2022-11-20T11:24:24;57.47;;;18.33;;
33148;SDS011;19506;51.040;3.856;2022-11-20T11:27:01;49.92;;;17.95;;
33148;SDS011;19506;51.040;3.856;2022-11-20T11:29:35;48.30;;;17.63;;
33148;SDS011;19506;51.040;3.856;2022-11-20T11:32:08;50.70;;;17.48;;
33148;SDS011;19506;51.040;3.856;2022-11-20T11:34:37;47.00;;;16.50;;
33148;SDS011;19506;51.040;3.856;2022-11-20T11:37:03;50.97;;;18.23;;
33148;SDS011;19506;51.040;3.856;2022-11-20T11:39:30;48.10;;;17.95;;
33148;SDS011;19506;51.040;3.856;2022-11-20T11:41:58;53.97;;;16.58;;
33148;SDS011;19506;51.040;3.856;2022-11-20T11:44:30;44.33;;;16.17;;
33148;SDS011;19506;51.040;3.856;2022-11-20T11:47:24;42.03;;;15.10;;
33148;SDS011;19506;51.040;3.856;2022-11-20T11:52:48;46.13;;;16.02;;
33148;SDS011;19506;51.040;3.856;2022-11-20T11:55:40;49.38;;;16.15;;
33148;SDS011;19506;51.040;3.856;2022-11-20T12:01:03;43.13;;;16.90;;
33148;SDS011;19506;51.040;3.856;2022-11-20T12:03:39;41.78;;;15.43;;
33148;SDS011;19506;51.040;3.856;2022-11-20T12:06:14;35.17;;;13.95;;
33148;SDS011;19506;51.040;3.856;2022-11-20T12:14:37;38.88;;;15.35;;
33148;SDS011;19506;51.040;3.856;2022-11-20T12:17:02;41.92;;;13.88;;
33148;SDS011;19506;51.040;3.856;2022-11-20T12:19:31;40.17;;;15.80;;
33148;SDS011;19506;51.040;3.856;2022-11-20T12:25:01;40.65;;;13.77;;
33148;SDS011;19506;51.040;3.856;2022-11-20T12:30:19;36.53;;;13.52;;
33148;SDS011;19506;51.040;3.856;2022-11-20T12:33:02;43.40;;;14.45;;
33148;SDS011;19506;51.040;3.856;2022-11-20T12:43:22;30.60;;;12.13;;
33148;SDS011;19506;51.040;3.856;2022-11-20T12:48:52;36.85;;;13.85;;
33148;SDS011;19506;51.040;3.856;2022-11-20T12:51:25;31.95;;;13.15;;
33148;SDS011;19506;51.040;3.856;2022-11-20T12:54:36;37.33;;;14.40;;
33148;SDS011;19506;51.040;3.856;2022-11-20T12:57:18;37.92;;;12.82;;
33148;SDS011;19506;51.040;3.856;2022-11-20T13:00:10;31.58;;;12.60;;
33148;SDS011;19506;51.040;3.856;2022-11-20T13:05:59;29.77;;;11.13;;
33148;SDS011;19506;51.040;3.856;2022-11-20T13:08:47;34.38;;;11.90;;
33148;SDS011;19506;51.040;3.856;2022-11-20T13:16:30;32.35;;;11.98;;
33148;SDS011;19506;51.040;3.856;2022-11-20T13:19:20;33.45;;;12.35;;
33148;SDS011;19506;51.040;3.856;2022-11-20T13:21:48;29.08;;;10.80;;
33148;SDS011;19506;51.040;3.856;2022-11-20T13:29:46;30.38;;;9.85;;
33148;SDS011;19506;51.040;3.856;2022-11-20T13:32:25;30.48;;;11.60;;
33148;SDS011;19506;51.040;3.856;2022-11-20T13:35:00;30.23;;;10.68;;
33148;SDS011;19506;51.040;3.856;2022-11-20T13:37:29;29.65;;;10.88;;
33148;SDS011;19506;51.040;3.856;2022-11-20T13:42:43;34.97;;;10.13;;
33148;SDS011;19506;51.040;3.856;2022-11-20T13:45:21;43.17;;;10.80;;
33148;SDS011;19506;51.040;3.856;2022-11-20T13:47:49;29.92;;;9.60;;
33148;SDS011;19506;51.040;3.856;2022-11-20T13:50:16;39.55;;;11.32;;
33148;SDS011;19506;51.040;3.856;2022-11-20T14:03:42;32.45;;;11.40;;
33148;SDS011;19506;51.040;3.856;2022-11-20T14:06:12;23.75;;;8.82;;
33148;SDS011;19506;51.040;3.856;2022-11-20T14:08:52;34.42;;;9.10;;
33148;SDS011;19506;51.040;3.856;2022-11-20T14:16:31;35.72;;;8.38;;
33148;SDS011;19506;51.040;3.856;2022-11-20T14:19:17;29.95;;;10.05;;
33148;SDS011;19506;51.040;3.856;2022-11-20T14:21:45;24.98;;;8.40;;
33148;SDS011;19506;51.040;3.856;2022-11-20T14:24:12;25.75;;;8.70;;
33148;SDS011;19506;51.040;3.856;2022-11-20T14:26:44;30.02;;;9.05;;
33148;SDS011;19506;51.040;3.856;2022-11-20T14:31:39;18.35;;;8.75;;
33148;SDS011;19506;51.040;3.856;2022-11-20T14:34:05;22.35;;;8.65;;
33148;SDS011;19506;51.040;3.856;2022-11-20T14:36:37;23.80;;;8.70;;
33148;SDS011;19506;51.040;3.856;2022-11-20T14:39:03;30.65;;;8.38;;
33148;SDS011;19506;51.040;3.856;2022-11-20T14:43:57;24.30;;;7.68;;
33148;SDS011;19506;51.040;3.856;2022-11-20T14:46:23;27.02;;;9.20;;
33148;SDS011;19506;51.040;3.856;2022-11-20T14:51:24;24.35;;;8.98;;
33148;SDS011;19506;51.040;3.856;2022-11-20T14:54:16;25.75;;;8.68;;
33148;SDS011;19506;51.040;3.856;2022-11-20T14:56:56;17.40;;;7.57;;
33148;SDS011;19506;51.040;3.856;2022-11-20T14:59:24;21.45;;;8.25;;
33148;SDS011;19506;51.040;3.856;2022-11-20T15:02:04;25.20;;;7.22;;
33148;SDS011;19506;51.040;3.856;2022-11-20T15:04:33;23.80;;;8.52;;
33148;SDS011;19506;51.040;3.856;2022-11-20T15:10:20;18.27;;;8.50;;
33148;SDS011;19506;51.040;3.856;2022-11-20T15:18:30;18.88;;;7.72;;
33148;SDS011;19506;51.040;3.856;2022-11-20T15:21:08;21.00;;;8.23;;
33148;SDS011;19506;51.040;3.856;2022-11-20T15:23:36;17.45;;;7.28;;
33148;SDS011;19506;51.040;3.856;2022-11-20T15:30:58;24.98;;;7.50;;
33148;SDS011;19506;51.040;3.856;2022-11-20T15:33:24;14.80;;;6.28;;
33148;SDS011;19506;51.040;3.856;2022-11-20T15:38:15;19.42;;;7.13;;
33148;SDS011;19506;51.040;3.856;2022-11-20T15:40:41;16.30;;;6.57;;
33148;SDS011;19506;51.040;3.856;2022-11-20T15:43:06;23.38;;;7.55;;
33148;SDS011;19506;51.040;3.856;2022-11-20T15:45:42;19.08;;;7.05;;
33148;SDS011;19506;51.040;3.856;2022-11-20T15:53:19;19.85;;;6.68;;
33148;SDS011;19506;51.040;3.856;2022-11-20T15:58:11;18.10;;;7.40;;
33148;SDS011;19506;51.040;3.856;2022-11-20T16:00:36;17.70;;;6.47;;
33148;SDS011;19506;51.040;3.856;2022-11-20T16:05:28;15.85;;;6.15;;
33148;SDS011;19506;51.040;3.856;2022-11-20T16:07:54;14.07;;;6.60;;
33148;SDS011;19506;51.040;3.856;2022-11-20T16:12:45;14.57;;;6.10;;
33148;SDS011;19506;51.040;3.856;2022-11-20T16:15:29;15.43;;;6.05;;
33148;SDS011;19506;51.040;3.856;2022-11-20T16:18:11;18.67;;;5.93;;
33148;SDS011;19506;51.040;3.856;2022-11-20T16:20:38;12.35;;;6.93;;
33148;SDS011;19506;51.040;3.856;2022-11-20T16:23:04;18.98;;;7.47;;
33148;SDS011;19506;51.040;3.856;2022-11-20T16:25:30;15.75;;;6.80;;
33148;SDS011;19506;51.040;3.856;2022-11-20T16:30:22;12.40;;;5.65;;
33148;SDS011;19506;51.040;3.856;2022-11-20T16:32:47;12.57;;;5.40;;
33148;SDS011;19506;51.040;3.856;2022-11-20T16:35:13;17.35;;;5.60;;
33148;SDS011;19506;51.040;3.856;2022-11-20T16:37:39;14.60;;;6.22;;
33148;SDS011;19506;51.040;3.856;2022-11-20T16:40:05;13.00;;;5.97;;
33148;SDS011;19506;51.040;3.856;2022-11-20T16:42:34;12.35;;;5.72;;
33148;SDS011;19506;51.040;3.856;2022-11-20T16:45:01;16.40;;;5.95;;
33148;SDS011;19506;51.040;3.856;2022-11-20T16:47:27;13.75;;;5.30;;
33148;SDS011;19506;51.040;3.856;2022-11-20T16:52:18;14.50;;;5.70;;
33148;SDS011;19506;51.040;3.856;2022-11-20T16:57:09;17.63;;;6.15;;
33148;SDS011;19506;51.040;3.856;2022-11-20T16:59:35;10.75;;;5.50;;
33148;SDS011;19506;51.040;3.856;2022-11-20T17:02:01;10.32;;;4.65;;
33148;SDS011;19506;51.040;3.856;2022-11-20T17:06:53;20.50;;;5.57;;
33148;SDS011;19506;51.040;3.856;2022-11-20T17:09:18;13.80;;;5.82;;
33148;SDS011;19506;51.040;3.856;2022-11-20T17:11:44;10.05;;;5.35;;
33148;SDS011;19506;51.040;3.856;2022-11-20T17:14:10;13.52;;;4.88;;
33148;SDS011;19506;51.040;3.856;2022-11-20T17:16:36;16.42;;;6.20;;
33148;SDS011;19506;51.040;3.856;2022-11-20T17:19:02;13.38;;;5.15;;
33148;SDS011;19506;51.040;3.856;2022-11-20T17:21:29;12.38;;;5.22;;
33148;SDS011;19506;51.040;3.856;2022-11-20T17:23:58;10.25;;;5.15;;
33148;SDS011;19506;51.040;3.856;2022-11-20T17:26:25;12.57;;;4.90;;
33148;SDS011;19506;51.040;3.856;2022-11-20T17:29:02;12.20;;;5.47;;
33148;SDS011;19506;51.040;3.856;2022-11-20T17:31:29;16.35;;;5.43;;
33148;SDS011;19506;51.040;3.856;2022-11-20T17:33:57;18.27;;;6.10;;
33148;SDS011;19506;51.040;3.856;2022-11-20T17:36:26;12.07;;;5.25;;
33148;SDS011;19506;51.040;3.856;2022-11-20T17:38:52;13.25;;;4.78;;
33148;SDS011;19506;51.040;3.856;2022-11-20T17:41:19;16.10;;;5.85;;
33148;SDS011;19506;51.040;3.856;2022-11-20T17:43:47;10.20;;;5.18;;
33148;SDS011;19506;51.040;3.856;2022-11-20T17:46:17;13.98;;;5.50;;
33148;SDS011;19506;51.040;3.856;2022-11-20T17:48:44;17.52;;;5.38;;
33148;SDS011;19506;51.040;3.856;2022-11-20T17:51:13;11.88;;;5.47;;
33148;SDS011;19506;51.040;3.856;2022-11-20T17:53:42;10.20;;;4.70;;
33148;SDS011;19506;51.040;3.856;2022-11-20T17:56:09;8.90;;;4.82;;
33148;SDS011;19506;51.040;3.856;2022-11-20T17:58:54;13.52;;;4.70;;
33148;SDS011;19506;51.040;3.856;2022-11-20T18:03:45;11.88;;;4.90;;
33148;SDS011;19506;51.040;3.856;2022-11-20T18:06:12;16.10;;;5.28;;
33148;SDS011;19506;51.040;3.856;2022-11-20T18:08:42;16.38;;;5.20;;
33148;SDS011;19506;51.040;3.856;2022-11-20T18:11:15;10.73;;;5.28;;
33148;SDS011;19506;51.040;3.856;2022-11-20T18:13:53;9.35;;;4.70;;
33148;SDS011;19506;51.040;3.856;2022-11-20T18:16:40;12.52;;;4.63;;
33148;SDS011;19506;51.040;3.856;2022-11-20T18:19:15;9.65;;;4.05;;
33148;SDS011;19506;51.040;3.856;2022-11-20T18:21:51;13.93;;;5.00;;
33148;SDS011;19506;51.040;3.856;2022-11-20T18:26:42;7.55;;;4.18;;
33148;SDS011;19506;51.040;3.856;2022-11-20T18:31:34;9.60;;;4.28;;
33148;SDS011;19506;51.040;3.856;2022-11-20T18:34:00;11.30;;;4.80;;
33148;SDS011;19506;51.040;3.856;2022-11-20T18:36:29;8.40;;;4.03;;
33148;SDS011;19506;51.040;3.856;2022-11-20T18:38:56;11.07;;;4.40;;
33148;SDS011;19506;51.040;3.856;2022-11-20T18:41:24;13.63;;;5.40;;
33148;SDS011;19506;51.040;3.856;2022-11-20T18:44:20;8.90;;;4.10;;
33148;SDS011;19506;51.040;3.856;2022-11-20T18:47:10;12.32;;;4.40;;
33148;SDS011;19506;51.040;3.856;2022-11-20T18:49:37;9.82;;;3.92;;
33148;SDS011;19506;51.040;3.856;2022-11-20T18:54:29;9.77;;;4.07;;
33148;SDS011;19506;51.040;3.856;2022-11-20T18:56:55;12.32;;;4.35;;
33148;SDS011;19506;51.040;3.856;2022-11-20T18:59:20;11.55;;;4.50;;
33148;SDS011;19506;51.040;3.856;2022-11-20T19:01:47;9.70;;;3.95;;
33148;SDS011;19506;51.040;3.856;2022-11-20T19:04:14;9.40;;;4.10;;
33148;SDS011;19506;51.040;3.856;2022-11-20T19:06:42;12.20;;;5.30;;
33148;SDS011;19506;51.040;3.856;2022-11-20T19:09:10;9.68;;;4.40;;
33148;SDS011;19506;51.040;3.856;2022-11-20T19:11:37;10.05;;;4.53;;
33148;SDS011;19506;51.040;3.856;2022-11-20T19:14:04;11.10;;;4.97;;
33148;SDS011;19506;51.040;3.856;2022-11-20T19:16:30;17.20;;;6.13;;
33148;SDS011;19506;51.040;3.856;2022-11-20T19:18:58;13.90;;;5.72;;
33148;SDS011;19506;51.040;3.856;2022-11-20T19:21:25;17.08;;;5.90;;
33148;SDS011;19506;51.040;3.856;2022-11-20T19:23:52;20.42;;;6.85;;
33148;SDS011;19506;51.040;3.856;2022-11-20T19:26:19;11.30;;;5.03;;
33148;SDS011;19506;51.040;3.856;2022-11-20T19:28:45;15.73;;;4.75;;
33148;SDS011;19506;51.040;3.856;2022-11-20T19:31:15;10.77;;;4.78;;
33148;SDS011;19506;51.040;3.856;2022-11-20T19:33:43;21.98;;;5.95;;
33148;SDS011;19506;51.040;3.856;2022-11-20T19:38:39;9.38;;;4.88;;
33148;SDS011;19506;51.040;3.856;2022-11-20T19:41:07;12.98;;;5.35;;
33148;SDS011;19506;51.040;3.856;2022-11-20T19:43:33;13.63;;;4.97;;
33148;SDS011;19506;51.040;3.856;2022-11-20T19:48:25;7.20;;;3.90;;
33148;SDS011;19506;51.040;3.856;2022-11-20T19:50:53;11.55;;;4.82;;
33148;SDS011;19506;51.040;3.856;2022-11-20T19:55:55;7.80;;;4.28;;
33148;SDS011;19506;51.040;3.856;2022-11-20T19:58:24;9.55;;;4.70;;
33148;SDS011;19506;51.040;3.856;2022-11-20T20:00:52;8.85;;;4.18;;
33148;SDS011;19506;51.040;3.856;2022-11-20T20:05:43;8.75;;;4.35;;
33148;SDS011;19506;51.040;3.856;2022-11-20T20:08:09;13.75;;;5.13;;
33148;SDS011;19506;51.040;3.856;2022-11-20T20:13:01;9.63;;;4.47;;
33148;SDS011;19506;51.040;3.856;2022-11-20T20:17:52;14.00;;;4.50;;
33148;SDS011;19506;51.040;3.856;2022-11-20T20:20:19;8.23;;;3.80;;
33148;SDS011;19506;51.040;3.856;2022-11-20T20:22:45;8.48;;;4.57;;
33148;SDS011;19506;51.040;3.856;2022-11-20T20:27:36;8.20;;;3.92;;
33148;SDS011;19506;51.040;3.856;2022-11-20T20:30:03;8.40;;;4.32;;
33148;SDS011;19506;51.040;3.856;2022-11-20T20:32:36;8.15;;;4.13;;
33148;SDS011;19506;51.040;3.856;2022-11-20T20:35:02;8.60;;;4.30;;
33148;SDS011;19506;51.040;3.856;2022-11-20T20:37:29;6.47;;;3.70;;
33148;SDS011;19506;51.040;3.856;2022-11-20T20:42:20;12.35;;;4.38;;
33148;SDS011;19506;51.040;3.856;2022-11-20T20:44:45;9.43;;;4.10;;
33148;SDS011;19506;51.040;3.856;2022-11-20T20:47:30;7.63;;;4.10;;
33148;SDS011;19506;51.040;3.856;2022-11-20T20:49:56;11.73;;;4.03;;
33148;SDS011;19506;51.040;3.856;2022-11-20T20:54:51;7.10;;;3.97;;
33148;SDS011;19506;51.040;3.856;2022-11-20T20:57:17;8.05;;;4.22;;
33148;SDS011;19506;51.040;3.856;2022-11-20T21:02:09;7.38;;;3.72;;
33148;SDS011;19506;51.040;3.856;2022-11-20T21:04:35;8.93;;;4.00;;
33148;SDS011;19506;51.040;3.856;2022-11-20T21:09:26;12.73;;;5.35;;
33148;SDS011;19506;51.040;3.856;2022-11-20T21:11:52;7.32;;;3.60;;
33148;SDS011;19506;51.040;3.856;2022-11-20T21:14:18;8.80;;;4.00;;
33148;SDS011;19506;51.040;3.856;2022-11-20T21:19:09;6.75;;;3.28;;
33148;SDS011;19506;51.040;3.856;2022-11-20T21:21:35;6.57;;;3.30;;
33148;SDS011;19506;51.040;3.856;2022-11-20T21:24:20;8.45;;;3.65;;
33148;SDS011;19506;51.040;3.856;2022-11-20T21:29:13;6.28;;;3.25;;
33148;SDS011;19506;51.040;3.856;2022-11-20T21:31:39;6.53;;;3.28;;
33148;SDS011;19506;51.040;3.856;2022-11-20T21:36:34;7.03;;;3.47;;
33148;SDS011;19506;51.040;3.856;2022-11-20T21:41:27;8.27;;;3.53;;
33148;SDS011;19506;51.040;3.856;2022-11-20T21:43:54;9.02;;;3.85;;
33148;SDS011;19506;51.040;3.856;2022-11-20T21:46:21;7.57;;;3.88;;
33148;SDS011;19506;51.040;3.856;2022-11-20T21:51:13;7.90;;;3.53;;
33148;SDS011;19506;51.040;3.856;2022-11-20T21:53:41;6.28;;;3.33;;
33148;SDS011;19506;51.040;3.856;2022-11-20T21:56:08;7.10;;;3.40;;
33148;SDS011;19506;51.040;3.856;2022-11-20T21:58:35;6.88;;;3.55;;
33148;SDS011;19506;51.040;3.856;2022-11-20T22:01:09;10.25;;;3.60;;
33148;SDS011;19506;51.040;3.856;2022-11-20T22:03:36;6.80;;;4.00;;
33148;SDS011;19506;51.040;3.856;2022-11-20T22:06:02;5.97;;;3.33;;
33148;SDS011;19506;51.040;3.856;2022-11-20T22:08:29;6.47;;;3.28;;
33148;SDS011;19506;51.040;3.856;2022-11-20T22:13:28;6.13;;;2.88;;
33148;SDS011;19506;51.040;3.856;2022-11-20T22:16:13;6.75;;;3.38;;
33148;SDS011;19506;51.040;3.856;2022-11-20T22:18:42;7.43;;;3.30;;
33148;SDS011;19506;51.040;3.856;2022-11-20T22:21:09;5.07;;;3.10;;
33148;SDS011;19506;51.040;3.856;2022-11-20T22:23:36;9.63;;;4.68;;
33148;SDS011;19506;51.040;3.856;2022-11-20T22:28:32;7.35;;;3.10;;
33148;SDS011;19506;51.040;3.856;2022-11-20T22:30:59;6.00;;;3.38;;
33148;SDS011;19506;51.040;3.856;2022-11-20T22:33:26;8.40;;;4.07;;
33148;SDS011;19506;51.040;3.856;2022-11-20T22:35:58;6.07;;;3.13;;
33148;SDS011;19506;51.040;3.856;2022-11-20T22:38:25;5.57;;;3.13;;
33148;SDS011;19506;51.040;3.856;2022-11-20T22:43:16;7.32;;;2.90;;
33148;SDS011;19506;51.040;3.856;2022-11-20T22:48:09;4.25;;;2.92;;
33148;SDS011;19506;51.040;3.856;2022-11-20T22:53:00;6.78;;;2.90;;
33148;SDS011;19506;51.040;3.856;2022-11-20T22:55:26;7.75;;;3.60;;
33148;SDS011;19506;51.040;3.856;2022-11-20T23:00:17;5.10;;;2.80;;
33148;SDS011;19506;51.040;3.856;2022-11-20T23:02:43;5.10;;;2.88;;
33148;SDS011;19506;51.040;3.856;2022-11-20T23:05:10;4.70;;;2.63;;
33148;SDS011;19506;51.040;3.856;2022-11-20T23:07:36;7.07;;;3.65;;
33148;SDS011;19506;51.040;3.856;2022-11-20T23:12:27;5.43;;;3.38;;
33148;SDS011;19506;51.040;3.856;2022-11-20T23:14:53;6.05;;;2.50;;
33148;SDS011;19506;51.040;3.856;2022-11-20T23:17:19;5.00;;;2.60;;
33148;SDS011;19506;51.040;3.856;2022-11-20T23:19:44;5.35;;;3.00;;
33148;SDS011;19506;51.040;3.856;2022-11-20T23:22:10;5.95;;;2.95;;
33148;SDS011;19506;51.040;3.856;2022-11-20T23:24:35;4.30;;;2.55;;
33148;SDS011;19506;51.040;3.856;2022-11-20T23:29:27;7.10;;;2.60;;
33148;SDS011;19506;51.040;3.856;2022-11-20T23:31:52;8.88;;;3.20;;
33148;SDS011;19506;51.040;3.856;2022-11-20T23:36:43;5.20;;;2.90;;
33148;SDS011;19506;51.040;3.856;2022-11-20T23:39:09;3.88;;;2.38;;
33148;SDS011;19506;51.040;3.856;2022-11-20T23:41:35;4.38;;;2.83;;
33148;SDS011;19506;51.040;3.856;2022-11-20T23:44:00;5.85;;;3.20;;
33148;SDS011;19506;51.040;3.856;2022-11-20T23:48:52;5.43;;;2.63;;
33148;SDS011;19506;51.040;3.856;2022-11-20T23:53:43;5.60;;;2.88;;
33148;SDS011;19506;51.040;3.856;2022-11-20T23:58:35;10.10;;;2.35;;
